Time;durP1;ratioP1;P1;durP2;ratioP2;P2;SDS_P1;SDS_P2;PMS_P1;PMS_P2;Temp;Humidity;BMP_temperature;BMP_pressure;BME280_temperature;BME280_humidity;BME280_pressure;Samples;Min_cycle;Max_cycle;Signal;HPM_P1;HPM_P2
2021/04/05 00:03:49;;;;;;;12.93;6.53;;;;;;;4.88;43.63;100948.22;7930737;28;20773;-64
2021/04/05 00:07:41;;;;;;;19.42;7.93;;;;;;;4.88;43.50;100935.19;7932202;28;20038;-65
2021/04/05 00:11:32;;;;;;;14.23;7.03;;;;;;;4.86;43.71;100913.56;7932093;28;20525;-64
2021/04/05 00:15:23;;;;;;;17.30;7.45;;;;;;;4.90;43.77;100915.13;7929349;28;20038;-65
2021/04/05 00:19:13;;;;;;;11.88;6.03;;;;;;;4.91;43.83;100896.00;7929066;28;20038;-64
2021/04/05 00:23:05;;;;;;;14.23;6.57;;;;;;;4.91;43.91;100883.00;7929316;28;20037;-64
2021/04/05 00:26:55;;;;;;;10.27;5.70;;;;;;;4.94;43.89;100868.09;7922970;28;20034;-64
2021/04/05 00:30:53;;;;;;;14.57;7.20;;;;;;;4.93;43.95;100858.59;7935882;28;20403;-64
2021/04/05 00:34:44;;;;;;;11.43;6.57;;;;;;;4.97;44.14;100857.56;7934568;28;20019;-64
2021/04/05 00:38:34;;;;;;;16.23;6.68;;;;;;;4.95;44.21;100830.75;7927021;28;20629;-65
2021/04/05 00:42:25;;;;;;;12.73;6.90;;;;;;;4.99;44.38;100839.25;7932589;28;20038;-64
2021/04/05 00:46:23;;;;;;;14.75;6.40;;;;;;;5.00;44.57;100827.94;7927404;28;20705;-64
2021/04/05 00:50:18;;;;;;;11.27;5.35;;;;;;;4.98;44.34;100812.38;7929130;28;20072;-64
2021/04/05 00:54:09;;;;;;;11.63;6.93;;;;;;;5.02;44.47;100807.91;7927540;28;20042;-64
2021/04/05 00:58:01;;;;;;;12.57;6.75;;;;;;;5.04;44.35;100798.25;7928014;28;20562;-64
2021/04/05 01:01:52;;;;;;;11.20;5.85;;;;;;;5.06;44.15;100801.66;7926870;28;20541;-64
2021/04/05 01:05:43;;;;;;;15.68;7.18;;;;;;;5.07;44.45;100788.53;7927492;28;20506;-67
2021/04/05 01:09:33;;;;;;;10.27;6.60;;;;;;;5.09;44.42;100786.72;7925650;28;20463;-66
2021/04/05 01:13:24;;;;;;;16.73;7.40;;;;;;;5.10;44.69;100769.34;7928511;28;20034;-67
2021/04/05 01:17:15;;;;;;;16.95;8.60;;;;;;;5.07;44.65;100746.88;7923030;28;20074;-67
2021/04/05 01:21:06;;;;;;;11.27;7.68;;;;;;;5.08;44.62;100732.09;7926844;28;20038;-67
2021/04/05 01:24:57;;;;;;;14.60;7.38;;;;;;;5.11;44.39;100716.34;7933288;28;20041;-66
2021/04/05 01:28:53;;;;;;;20.70;8.52;;;;;;;5.14;44.43;100722.28;7926877;28;20037;-67
2021/04/05 01:32:43;;;;;;;15.02;8.10;;;;;;;5.12;44.68;100711.06;7926369;28;20048;-67
2021/04/05 01:36:34;;;;;;;14.68;7.65;;;;;;;5.15;44.64;100710.94;7926719;28;20037;-67
2021/04/05 01:40:25;;;;;;;18.83;7.90;;;;;;;5.14;44.70;100706.66;7926879;28;20040;-67
2021/04/05 01:44:15;;;;;;;22.92;9.85;;;;;;;5.15;45.00;100699.69;7929054;28;20520;-67
2021/04/05 01:48:07;;;;;;;21.65;9.50;;;;;;;5.15;44.85;100678.84;7926442;28;20453;-67
2021/04/05 01:51:58;;;;;;;19.83;10.50;;;;;;;5.13;44.71;100665.03;7929779;28;20038;-67
2021/04/05 01:55:49;;;;;;;20.35;9.30;;;;;;;5.12;45.08;100656.38;7926619;28;20091;-67
2021/04/05 01:59:39;;;;;;;17.73;11.02;;;;;;;5.10;45.09;100645.19;7929849;28;20042;-67
2021/04/05 02:03:30;;;;;;;22.10;10.82;;;;;;;5.06;45.10;100640.22;7933153;28;20038;-67
2021/04/05 02:07:21;;;;;;;15.82;10.25;;;;;;;5.08;45.13;100640.97;7933552;28;20041;-67
2021/04/05 02:11:15;;;;;;;18.23;9.55;;;;;;;5.09;45.30;100632.25;7932277;28;20458;-66
2021/04/05 02:15:14;;;;;;;17.30;9.27;;;;;;;5.10;45.31;100633.94;7933254;28;20479;-66
2021/04/05 02:19:05;;;;;;;16.67;9.15;;;;;;;5.07;45.39;100610.63;7939368;28;20758;-67
2021/04/05 02:22:57;;;;;;;15.35;8.68;;;;;;;5.06;45.21;100598.56;7932179;28;20133;-67
2021/04/05 02:26:48;;;;;;;18.70;9.73;;;;;;;5.10;45.12;100587.09;7949989;28;20126;-67
2021/04/05 02:30:38;;;;;;;19.77;9.30;;;;;;;5.11;45.31;100566.16;7920205;28;20043;-67
2021/04/05 02:34:29;;;;;;;20.20;9.23;;;;;;;5.07;45.38;100543.78;7932937;28;20410;-64
2021/04/05 02:38:21;;;;;;;17.02;8.57;;;;;;;5.10;45.59;100540.22;7930999;28;20446;-64
2021/04/05 02:42:11;;;;;;;12.52;6.85;;;;;;;5.09;45.24;100528.09;7931487;28;20039;-67
2021/04/05 02:46:04;;;;;;;14.90;7.22;;;;;;;5.09;45.64;100526.34;7931761;28;20137;-67
2021/04/05 02:49:55;;;;;;;16.25;8.00;;;;;;;5.09;45.76;100541.13;7932846;28;20044;-67
2021/04/05 02:53:49;;;;;;;15.32;7.47;;;;;;;5.08;45.61;100548.09;7932667;28;20034;-67
2021/04/05 02:57:43;;;;;;;16.27;6.90;;;;;;;5.09;45.87;100546.34;7932219;28;20530;-66
2021/04/05 03:01:34;;;;;;;10.80;7.35;;;;;;;5.09;45.51;100528.94;7931070;28;20129;-67
2021/04/05 03:05:26;;;;;;;14.48;7.03;;;;;;;5.06;45.62;100523.06;7931196;28;20037;-67
2021/04/05 03:09:17;;;;;;;16.00;7.45;;;;;;;5.09;45.74;100525.50;7933736;28;20088;-67
2021/04/05 03:13:10;;;;;;;13.15;6.60;;;;;;;5.09;45.52;100512.47;7932200;28;20114;-66
2021/04/05 03:17:01;;;;;;;14.70;6.57;;;;;;;5.10;45.81;100511.56;7927976;28;20542;-66
2021/04/05 03:20:53;;;;;;;18.15;7.00;;;;;;;5.07;45.65;100509.94;7931266;28;20043;-67
2021/04/05 03:24:43;;;;;;;13.15;7.10;;;;;;;5.06;45.81;100500.44;7931773;28;20039;-66
2021/04/05 03:28:34;;;;;;;12.13;7.07;;;;;;;5.05;45.66;100497.94;7931732;28;20413;-67
2021/04/05 03:32:29;;;;;;;18.05;7.03;;;;;;;5.02;45.92;100496.31;7935878;28;20045;-67
2021/04/05 03:36:37;;;;;;;14.30;7.13;;;;;;;5.00;45.78;100490.34;7929989;28;20045;-67
2021/04/05 03:40:29;;;;;;;14.57;6.63;;;;;;;5.03;46.03;100489.34;7929720;28;20525;-67
2021/04/05 03:44:41;;;;;;;12.48;5.85;;;;;;;5.06;45.92;100479.63;7930711;28;20049;-67
2021/04/05 03:48:46;;;;;;;17.17;6.93;;;;;;;5.12;45.82;100478.47;7926623;28;20414;-67
2021/04/05 03:52:48;;;;;;;11.38;6.43;;;;;;;5.14;46.17;100471.44;7932908;28;20061;-67
2021/04/05 03:56:42;;;;;;;11.15;6.28;;;;;;;5.15;45.99;100447.94;7930818;28;20034;-67
2021/04/05 04:00:34;;;;;;;15.25;6.68;;;;;;;5.19;46.17;100430.41;7930159;28;20116;-67
2021/04/05 04:04:36;;;;;;;12.30;6.13;;;;;;;5.22;46.02;100430.28;7930434;28;20479;-67
2021/04/05 04:08:32;;;;;;;16.63;6.50;;;;;;;5.24;46.16;100422.34;7927334;28;20054;-67
2021/04/05 04:12:24;;;;;;;11.88;6.13;;;;;;;5.26;46.18;100418.78;7929242;28;20037;-67
2021/04/05 04:16:15;;;;;;;13.00;6.35;;;;;;;5.25;46.15;100404.06;7928602;28;20049;-67
2021/04/05 04:20:10;;;;;;;20.52;6.15;;;;;;;5.29;46.30;100402.13;7928579;28;20048;-66
2021/04/05 04:24:01;;;;;;;13.65;6.45;;;;;;;5.27;46.19;100393.56;7926127;28;20517;-67
2021/04/05 04:27:52;;;;;;;13.27;5.70;;;;;;;5.28;46.34;100395.25;7934043;28;20041;-67
2021/04/05 04:31:43;;;;;;;20.02;6.70;;;;;;;5.26;46.24;100378.88;7928660;28;20057;-67
2021/04/05 04:35:36;;;;;;;13.30;5.85;;;;;;;5.30;46.34;100378.63;7928595;28;20033;-67
2021/04/05 04:39:26;;;;;;;15.00;5.95;;;;;;;5.29;46.47;100376.94;7932911;28;20139;-67
2021/04/05 04:43:17;;;;;;;13.38;5.40;;;;;;;5.31;46.23;100366.44;7929545;28;20033;-67
2021/04/05 04:47:08;;;;;;;12.23;6.32;;;;;;;5.30;46.39;100363.00;7928628;28;20120;-67
2021/04/05 04:50:59;;;;;;;14.82;5.55;;;;;;;5.31;46.49;100375.09;7927779;28;20046;-67
2021/04/05 04:54:50;;;;;;;10.68;5.65;;;;;;;5.29;46.37;100361.31;7930428;28;20064;-65
2021/04/05 04:58:42;;;;;;;14.48;5.28;;;;;;;5.30;46.36;100363.00;7928273;28;20395;-66
2021/04/05 05:02:37;;;;;;;9.35;5.32;;;;;;;5.30;46.82;100351.75;7928088;28;20038;-64
2021/04/05 05:06:29;;;;;;;10.07;5.28;;;;;;;5.31;46.53;100364.66;7928749;28;20454;-65
2021/04/05 05:10:20;;;;;;;11.52;6.63;;;;;;;5.33;46.65;100351.56;7930792;28;20042;-65
2021/04/05 05:14:13;;;;;;;15.75;6.05;;;;;;;5.32;46.80;100349.88;7931665;28;20033;-65
2021/04/05 05:18:04;;;;;;;14.25;5.63;;;;;;;5.31;46.64;100338.63;7923338;28;20046;-64
2021/04/05 05:22:00;;;;;;;15.88;6.82;;;;;;;5.34;46.93;100335.03;7932593;28;20034;-65
2021/04/05 05:25:51;;;;;;;16.40;6.78;;;;;;;5.28;46.92;100312.75;7926789;28;20067;-64
2021/04/05 05:29:43;;;;;;;21.00;6.70;;;;;;;5.33;47.01;100323.78;7927898;28;20030;-65
2021/04/05 05:33:34;;;;;;;15.30;6.40;;;;;;;5.34;47.06;100325.47;7928284;28;20042;-65
2021/04/05 05:37:26;;;;;;;17.42;6.68;;;;;;;5.35;46.86;100308.91;7920532;28;20030;-65
2021/04/05 05:41:24;;;;;;;12.48;6.15;;;;;;;5.39;47.03;100313.03;7932519;28;20077;-65
2021/04/05 05:45:24;;;;;;;20.45;6.70;;;;;;;5.40;47.16;100301.66;7941086;28;20044;-65
2021/04/05 05:49:34;;;;;;;19.58;6.32;;;;;;;5.40;47.25;100295.63;7926474;28;20049;-65
2021/04/05 05:53:35;;;;;;;10.25;6.68;;;;;;;5.38;47.14;100293.13;7927070;28;20034;-65
2021/04/05 05:57:34;;;;;;;16.48;6.78;;;;;;;5.39;47.30;100296.56;7925214;28;20058;-65
2021/04/05 06:01:40;;;;;;;16.98;7.60;;;;;;;5.40;47.38;100290.41;7922720;28;20154;-65
2021/04/05 06:05:42;;;;;;;18.20;7.18;;;;;;;5.40;47.46;100285.19;7925777;28;20110;-65
2021/04/05 06:10:04;;;;;;;17.73;7.47;;;;;;;5.37;47.34;100272.34;7925904;28;20037;-65
2021/04/05 06:14:03;;;;;;;12.50;7.28;;;;;;;5.36;47.72;100279.31;7926106;28;20034;-65
2021/04/05 06:18:31;;;;;;;17.35;7.72;;;;;;;5.36;47.48;100274.09;7925741;28;20087;-65
2021/04/05 06:22:48;;;;;;;17.30;7.65;;;;;;;5.33;47.52;100261.25;7925946;28;20030;-64
2021/04/05 06:26:46;;;;;;;16.33;7.15;;;;;;;5.33;48.02;100266.47;7927121;28;20152;-66
2021/04/05 06:30:57;;;;;;;;;;;;;;;5.26;47.51;100252.09;7928090;28;20045;-65
2021/04/05 06:35:09;;;;;;;22.88;7.32;;;;;;;5.28;47.74;100247.63;7919797;28;19999;-65
2021/04/05 06:39:18;;;;;;;19.83;7.82;;;;;;;5.30;47.93;100247.56;7916950;28;20038;-65
2021/04/05 06:43:33;;;;;;;19.42;7.57;;;;;;;5.31;47.87;100234.44;7920082;28;20039;-65
2021/04/05 06:47:43;;;;;;;12.73;8.07;;;;;;;5.32;47.99;100228.31;7930083;28;20423;-66
2021/04/05 06:51:54;;;;;;;14.57;7.32;;;;;;;5.34;48.04;100233.44;7931275;28;20046;-65
2021/04/05 06:55:55;;;;;;;19.63;8.23;;;;;;;5.39;48.15;100215.81;7932781;28;20034;-66
2021/04/05 07:00:08;;;;;;;13.07;7.20;;;;;;;5.43;48.17;100222.53;7932041;28;20118;-66
2021/04/05 07:04:20;;;;;;;14.52;7.13;;;;;;;5.49;48.37;100217.81;7938247;28;20050;-65
2021/04/05 07:08:21;;;;;;;14.93;6.90;;;;;;;5.53;48.14;100203.69;7927484;28;20096;-66
2021/04/05 07:12:41;;;;;;;19.77;7.20;;;;;;;5.57;48.40;100184.38;7934086;28;20033;-66
2021/04/05 07:16:59;;;;;;;22.00;8.20;;;;;;;5.60;48.56;100189.41;7951402;28;20031;-65
2021/04/05 07:21:20;;;;;;;14.85;7.28;;;;;;;5.65;48.31;100189.13;7931216;28;20517;-65
2021/04/05 07:25:42;;;;;;;17.48;8.13;;;;;;;5.70;48.46;100183.66;7927481;28;20045;-65
2021/04/05 07:29:37;;;;;;;18.58;7.50;;;;;;;5.76;48.37;100178.13;7914656;28;20042;-66
2021/04/05 07:33:39;;;;;;;15.35;7.55;;;;;;;5.81;48.77;100169.09;7929155;28;20096;-65
2021/04/05 07:37:53;;;;;;;16.75;7.68;;;;;;;5.83;48.84;100172.47;7929623;28;20042;-65
2021/04/05 07:41:57;;;;;;;12.32;6.35;;;;;;;5.87;48.35;100170.53;7930154;28;20033;-65
2021/04/05 07:46:26;;;;;;;14.13;6.78;;;;;;;5.88;48.85;100191.28;7928165;28;20058;-66
2021/04/05 07:50:39;;;;;;;11.35;6.57;;;;;;;5.89;48.91;100202.56;7906317;28;20026;-64
2021/04/05 07:54:34;;;;;;;17.40;7.03;;;;;;;5.89;49.05;100239.88;7923095;28;20045;-64
2021/04/05 07:58:32;;;;;;;12.75;4.93;;;;;;;5.85;48.61;100255.81;7917276;28;20042;-64
2021/04/05 08:02:48;;;;;;;5.75;3.10;;;;;;;5.83;48.72;100257.63;7909788;28;20070;-64
2021/04/05 08:06:51;;;;;;;3.88;2.10;;;;;;;5.79;48.64;100269.16;7918388;28;20038;-64
2021/04/05 08:11:27;;;;;;;2.40;1.60;;;;;;;5.78;48.24;100277.91;7905088;28;20121;-64
2021/04/05 08:15:27;;;;;;;3.42;1.77;;;;;;;5.73;48.35;100274.69;7902096;28;20042;-64
2021/04/05 08:20:06;;;;;;;4.13;1.60;;;;;;;5.67;48.14;100275.91;7903691;28;20045;-64
2021/04/05 08:24:14;;;;;;;1.58;1.08;;;;;;;5.64;48.30;100289.91;7905179;28;20122;-64
2021/04/05 08:28:18;;;;;;;2.72;1.63;;;;;;;5.58;48.14;100299.84;7909605;28;20049;-64
2021/04/05 08:32:18;;;;;;;1.83;1.25;;;;;;;5.53;48.23;100309.66;7911749;28;20097;-64
2021/04/05 08:36:32;;;;;;;4.85;1.17;;;;;;;5.47;48.52;100305.66;7908169;28;20062;-65
2021/04/05 08:41:04;;;;;;;1.52;1.00;;;;;;;5.43;48.32;100314.56;7909723;28;20518;-65
2021/04/05 08:45:11;;;;;;;4.13;1.20;;;;;;;5.42;48.60;100320.69;7850629;28;21024;-64
2021/04/05 08:49:14;;;;;;;2.20;1.08;;;;;;;5.39;48.50;100302.63;7904063;28;20581;-64
2021/04/05 08:53:07;;;;;;;4.47;0.90;;;;;;;5.43;48.63;100324.13;7908878;28;20037;-64
2021/04/05 08:57:01;;;;;;;4.03;1.20;;;;;;;5.44;48.45;100326.63;7912316;28;20026;-65
2021/04/05 09:00:55;;;;;;;4.35;1.10;;;;;;;5.44;48.48;100328.41;7908303;28;20073;-64
2021/04/05 09:04:47;;;;;;;2.58;0.90;;;;;;;5.43;48.53;100343.22;7910612;28;20064;-63
2021/04/05 09:08:39;;;;;;;2.67;0.98;;;;;;;5.42;48.58;100351.09;7907679;28;20037;-65
2021/04/05 09:12:33;;;;;;;3.95;1.73;;;;;;;5.40;48.57;100365.94;7911328;28;20034;-64
2021/04/05 09:17:15;;;;;;;1.17;0.70;;;;;;;5.38;48.48;100386.03;7907340;28;20038;-64
2021/04/05 09:21:37;;;;;;;2.22;0.65;;;;;;;5.34;48.48;100400.16;7869156;28;20129;-64
2021/04/05 09:25:56;;;;;;;1.35;0.80;;;;;;;5.21;48.39;100420.78;7911697;28;20038;-64
2021/04/05 09:30:28;;;;;;;1.92;0.80;;;;;;;5.07;48.28;100437.03;7914201;28;20050;-64
2021/04/05 09:34:52;;;;;;;3.55;1.00;;;;;;;4.96;48.28;100436.75;7911288;28;20630;-64
2021/04/05 09:38:58;;;;;;;4.60;1.15;;;;;;;4.88;48.20;100444.09;7912294;28;20117;-64
2021/04/05 09:43:03;;;;;;;4.55;1.50;;;;;;;4.83;48.42;100466.03;7906726;28;20910;-64
2021/04/05 09:47:10;;;;;;;3.28;1.00;;;;;;;4.84;47.94;100483.34;7910290;28;20074;-64
2021/04/05 09:51:39;;;;;;;3.88;1.30;;;;;;;4.80;48.09;100500.88;7908259;28;20088;-66
2021/04/05 09:55:33;;;;;;;5.72;2.15;;;;;;;4.79;47.78;100480.13;7913681;28;20910;-66
2021/04/05 09:59:36;;;;;;;3.33;1.00;;;;;;;4.77;47.76;100501.03;7910147;28;20038;-66
2021/04/05 10:03:28;;;;;;;3.60;1.50;;;;;;;4.69;47.68;100498.78;7906455;28;20121;-65
2021/04/05 10:07:19;;;;;;;7.85;2.40;;;;;;;4.70;47.41;100508.28;7910027;28;20506;-66
2021/04/05 10:11:11;;;;;;;3.45;1.38;;;;;;;4.65;47.34;100514.59;7906133;28;20030;-66
2021/04/05 10:15:03;;;;;;;7.80;1.40;;;;;;;4.62;47.58;100512.16;7906353;28;20384;-66
2021/04/05 10:18:58;;;;;;;6.93;1.33;;;;;;;4.60;47.49;100521.81;7906665;28;20046;-66
2021/04/05 10:22:50;;;;;;;5.80;1.33;;;;;;;4.61;47.33;100526.06;7936880;28;20037;-66
2021/04/05 10:26:42;;;;;;;9.18;1.30;;;;;;;4.63;47.34;100524.25;7910754;28;20041;-65
2021/04/05 10:30:54;;;;;;;;;;;;;;;4.63;47.32;100527.69;7911448;28;20046;-66
2021/04/05 10:34:46;;;;;;;7.00;1.75;;;;;;;4.74;47.51;100514.16;7917583;28;20000;-65
2021/04/05 10:38:38;;;;;;;4.53;1.27;;;;;;;4.85;47.52;100503.25;7925694;28;20069;-66
2021/04/05 10:42:37;;;;;;;4.50;1.25;;;;;;;5.00;47.37;100523.34;7913151;28;20046;-65
2021/04/05 10:46:34;;;;;;;4.03;1.30;;;;;;;5.10;47.40;100532.41;7922311;28;20058;-66
2021/04/05 10:50:32;;;;;;;4.55;1.00;;;;;;;5.25;47.43;100525.63;7908441;28;20120;-65
2021/04/05 10:54:39;;;;;;;3.13;1.35;;;;;;;5.35;47.17;100534.69;7908818;28;20033;-65
2021/04/05 10:58:59;;;;;;;3.35;1.10;;;;;;;5.38;47.29;100573.59;7912249;28;20046;-63
2021/04/05 11:02:58;;;;;;;4.03;0.85;;;;;;;5.24;46.90;100618.53;7919808;28;20564;-65
2021/04/05 11:06:51;;;;;;;2.10;0.80;;;;;;;4.98;46.29;100629.31;7921473;28;20525;-66
2021/04/05 11:10:44;;;;;;;1.05;0.68;;;;;;;4.66;46.45;100620.38;7925281;28;21206;-66
2021/04/05 11:14:36;;;;;;;2.30;0.70;;;;;;;4.51;46.50;100615.88;7915214;28;20069;-66
2021/04/05 11:18:31;;;;;;;1.42;0.95;;;;;;;4.49;46.49;100602.06;7907334;28;20185;-66
2021/04/05 11:22:28;;;;;;;1.95;0.88;;;;;;;4.60;46.42;100625.88;7917658;28;20041;-65
2021/04/05 11:26:30;;;;;;;1.05;0.70;;;;;;;4.69;46.18;100623.66;7911671;28;20037;-65
2021/04/05 11:30:25;;;;;;;1.40;0.90;;;;;;;4.86;46.34;100620.28;7911119;28;20035;-65
2021/04/05 11:34:26;;;;;;;3.45;0.63;;;;;;;5.04;46.30;100618.59;7908844;28;20038;-66
2021/04/05 11:38:19;;;;;;;2.58;0.82;;;;;;;5.22;46.39;100622.13;7913294;28;20507;-66
2021/04/05 11:42:11;;;;;;;3.03;0.98;;;;;;;5.33;46.32;100607.69;7912679;28;20042;-66
2021/04/05 11:46:06;;;;;;;1.35;0.82;;;;;;;5.43;45.96;100624.56;7908417;28;20137;-65
2021/04/05 11:49:57;;;;;;;2.20;0.98;;;;;;;5.52;46.13;100621.47;7921211;28;20027;-65
2021/04/05 11:53:57;;;;;;;2.03;0.75;;;;;;;5.61;46.02;100614.97;7918924;28;20045;-66
2021/04/05 11:57:52;;;;;;;3.40;1.05;;;;;;;5.75;45.90;100616.91;7910099;28;20175;-66
2021/04/05 12:01:54;;;;;;;1.55;0.70;;;;;;;5.86;45.44;100612.00;7916923;28;20084;-66
2021/04/05 12:05:55;;;;;;;4.28;1.25;;;;;;;5.93;45.49;100629.03;7904654;28;20514;-66
2021/04/05 12:09:57;;;;;;;4.30;1.40;;;;;;;5.88;45.23;100642.28;7911105;28;20030;-66
2021/04/05 12:13:52;;;;;;;5.35;1.40;;;;;;;5.77;44.99;100651.53;7921369;28;20434;-66
2021/04/05 12:17:48;;;;;;;2.72;1.10;;;;;;;5.62;44.97;100653.16;7912376;28;20034;-66
2021/04/05 12:21:40;;;;;;;1.33;0.80;;;;;;;5.54;44.83;100660.50;7916682;28;20046;-64
2021/04/05 12:25:43;;;;;;;3.00;1.25;;;;;;;5.45;44.80;100669.59;7907823;28;20415;-64
2021/04/05 12:29:35;;;;;;;3.92;1.38;;;;;;;5.37;44.85;100665.69;7908779;28;20243;-64
2021/04/05 12:33:27;;;;;;;4.75;1.13;;;;;;;5.32;44.84;100662.44;7904769;28;20042;-64
2021/04/05 12:37:21;;;;;;;4.50;1.13;;;;;;;5.22;45.23;100669.88;7914125;28;20053;-64
2021/04/05 12:41:12;;;;;;;1.17;0.93;;;;;;;5.13;45.07;100659.84;7920591;28;20475;-66
2021/04/05 12:45:08;;;;;;;4.95;1.10;;;;;;;5.06;44.68;100666.25;7918810;28;20509;-66
2021/04/05 12:49:00;;;;;;;5.05;1.35;;;;;;;5.02;44.81;100654.28;7905074;28;20787;-66
2021/04/05 12:52:57;;;;;;;4.78;1.02;;;;;;;4.99;44.88;100670.88;7918323;28;20129;-66
2021/04/05 12:56:52;;;;;;;3.47;1.38;;;;;;;4.98;44.47;100663.97;7907630;28;20031;-66
2021/04/05 13:00:43;;;;;;;8.55;2.67;;;;;;;5.03;44.48;100666.38;7908578;28;20050;-66
2021/04/05 13:04:36;;;;;;;4.85;1.52;;;;;;;5.11;44.41;100695.50;7913022;28;20055;-66
2021/04/05 13:08:39;;;;;;;5.30;1.00;;;;;;;5.12;44.25;100723.25;7924516;28;20499;-66
2021/04/05 13:12:47;;;;;;;3.28;1.13;;;;;;;5.04;44.25;100725.34;7906588;28;20038;-66
2021/04/05 13:16:53;;;;;;;1.83;0.98;;;;;;;4.99;44.41;100711.69;7910308;28;20107;-66
2021/04/05 13:20:48;;;;;;;3.80;1.52;;;;;;;4.98;44.39;100713.44;7921179;28;20037;-64
2021/04/05 13:24:45;;;;;;;4.03;0.90;;;;;;;4.95;44.41;100702.31;7910103;28;20042;-64
2021/04/05 13:28:40;;;;;;;8.15;1.25;;;;;;;4.94;44.33;100701.47;7905464;28;20038;-64
2021/04/05 13:32:35;;;;;;;5.82;1.00;;;;;;;4.89;44.06;100694.81;7907204;28;20478;-64
2021/04/05 13:36:26;;;;;;;5.35;1.23;;;;;;;4.89;44.02;100684.41;7914598;28;20116;-63
2021/04/05 13:40:21;;;;;;;2.25;0.93;;;;;;;4.88;43.90;100695.72;7907411;28;20061;-64
2021/04/05 13:44:17;;;;;;;5.35;0.90;;;;;;;4.82;43.53;100689.03;7908042;28;20064;-63
2021/04/05 13:48:11;;;;;;;2.42;0.82;;;;;;;4.88;43.27;100706.13;7902075;28;20077;-63
2021/04/05 13:52:03;;;;;;;2.83;1.02;;;;;;;4.91;43.26;100719.00;7905596;28;20092;-66
2021/04/05 13:55:56;;;;;;;2.55;0.80;;;;;;;4.93;43.00;100736.25;7907461;28;20121;-64
2021/04/05 14:00:36;;;;;;;1.77;0.95;;;;;;;4.93;43.05;100751.88;7911375;28;20797;-64
2021/04/05 14:04:36;;;;;;;2.38;0.82;;;;;;;4.88;42.91;100753.84;7909692;28;22823;-64
2021/04/05 14:08:28;;;;;;;3.30;0.90;;;;;;;4.81;43.10;100736.81;7915987;28;20517;-64
2021/04/05 14:12:23;;;;;;;4.68;0.82;;;;;;;4.76;43.08;100720.53;7912416;28;20045;-63
2021/04/05 14:16:18;;;;;;;4.20;1.08;;;;;;;4.73;42.79;100733.69;7911232;28;20076;-64
2021/04/05 14:20:17;;;;;;;2.75;0.73;;;;;;;4.66;42.59;100734.84;7912887;28;20060;-63
2021/04/05 14:24:19;;;;;;;2.10;0.90;;;;;;;4.63;42.34;100737.59;7918542;28;20034;-63
2021/04/05 14:28:25;;;;;;;5.25;1.33;;;;;;;4.63;42.38;100745.41;7917500;28;20457;-64
2021/04/05 14:32:22;;;;;;;1.63;0.80;;;;;;;4.59;42.14;100742.09;7914944;28;20084;-64
2021/04/05 14:36:21;;;;;;;0.87;0.80;;;;;;;4.55;41.79;100750.94;7917946;28;20427;-64
2021/04/05 14:40:16;;;;;;;;;;;;;;;4.41;42.23;100736.81;7917153;28;20064;-63
2021/04/05 14:44:10;;;;;;;1.65;0.68;;;;;;;4.35;42.18;100756.16;7916266;28;20008;-63
2021/04/05 14:48:02;;;;;;;0.75;0.57;;;;;;;4.36;41.81;100752.63;7910918;28;20050;-63
2021/04/05 14:51:56;;;;;;;1.23;0.60;;;;;;;4.34;41.48;100748.41;7911986;28;20053;-63
2021/04/05 14:55:49;;;;;;;1.00;0.60;;;;;;;4.33;41.32;100757.09;7914291;28;20038;-64
2021/04/05 14:59:39;;;;;;;1.10;0.95;;;;;;;4.33;41.59;100770.09;7912013;28;20117;-64
2021/04/05 15:03:31;;;;;;;3.40;0.88;;;;;;;4.32;41.89;100778.84;7910776;28;20034;-64
2021/04/05 15:07:27;;;;;;;1.48;0.73;;;;;;;4.37;41.41;100790.72;7913648;28;20091;-64
2021/04/05 15:11:20;;;;;;;3.95;1.15;;;;;;;4.48;41.73;100796.31;7911420;28;20038;-64
2021/04/05 15:15:17;;;;;;;1.75;0.82;;;;;;;4.56;41.71;100820.28;7921492;28;20038;-64
2021/04/05 15:19:09;;;;;;;1.73;0.77;;;;;;;4.57;42.03;100819.34;7910496;28;20403;-64
2021/04/05 15:23:01;;;;;;;4.60;1.70;;;;;;;4.55;41.95;100815.13;7906448;28;20042;-63
2021/04/05 15:27:00;;;;;;;8.50;4.55;;;;;;;4.52;42.08;100830.88;7913744;28;20117;-67
2021/04/05 15:30:51;;;;;;;2.85;1.50;;;;;;;4.47;42.21;100836.28;7913571;28;20399;-64
2021/04/05 15:34:44;;;;;;;2.28;0.70;;;;;;;4.47;42.03;100838.03;7909548;28;20590;-64
2021/04/05 15:38:37;;;;;;;2.80;0.63;;;;;;;4.44;42.02;100844.19;7904222;28;20050;-64
2021/04/05 15:42:30;;;;;;;3.40;0.80;;;;;;;4.45;42.16;100858.88;7914183;28;20109;-64
2021/04/05 15:46:36;;;;;;;2.83;1.48;;;;;;;4.37;42.03;100860.09;7912556;28;20136;-63
2021/04/05 15:50:35;;;;;;;0.70;0.60;;;;;;;4.26;42.17;100864.00;7911662;28;20372;-64
2021/04/05 15:54:29;;;;;;;1.73;0.60;;;;;;;4.12;42.45;100855.88;7915860;28;20120;-64
2021/04/05 15:58:29;;;;;;;2.08;0.93;;;;;;;3.97;42.58;100863.44;7919931;28;20042;-64
2021/04/05 16:02:29;;;;;;;2.20;0.80;;;;;;;3.82;42.63;100857.91;7915384;28;20395;-64
2021/04/05 16:06:42;;;;;;;2.95;1.08;;;;;;;3.72;42.99;100847.94;7908388;28;20535;-64
2021/04/05 16:10:45;;;;;;;2.28;0.77;;;;;;;3.66;42.78;100858.56;7912309;28;20047;-64
2021/04/05 16:14:38;;;;;;;3.63;1.00;;;;;;;3.62;43.22;100873.41;7916881;28;20073;-63
2021/04/05 16:18:36;;;;;;;2.47;0.70;;;;;;;3.56;43.06;100870.22;7905026;28;20052;-63
2021/04/05 16:22:33;;;;;;;1.30;0.75;;;;;;;3.57;42.93;100877.94;7915474;28;20034;-64
2021/04/05 16:26:27;;;;;;;2.47;0.90;;;;;;;3.57;42.95;100866.72;7910683;28;20038;-63
2021/04/05 16:30:29;;;;;;;1.45;0.60;;;;;;;3.53;42.94;100859.94;7906157;28;20034;-64
2021/04/05 16:34:22;;;;;;;3.05;1.05;;;;;;;3.56;42.95;100870.22;7910927;28;20034;-64
2021/04/05 16:38:46;;;;;;;1.00;0.90;;;;;;;3.58;43.34;100870.97;7913777;28;20049;-64
2021/04/05 16:42:42;;;;;;;0.70;0.60;;;;;;;3.65;43.11;100857.75;7901529;28;20045;-64
2021/04/05 16:46:41;;;;;;;2.78;0.80;;;;;;;3.72;43.30;100864.38;7910360;28;20042;-64
2021/04/05 16:50:35;;;;;;;2.55;0.70;;;;;;;3.78;43.03;100861.53;7903168;28;20085;-64
2021/04/05 16:54:50;;;;;;;1.52;0.75;;;;;;;3.86;43.10;100865.63;7905484;28;20038;-64
2021/04/05 16:58:54;;;;;;;1.83;0.88;;;;;;;3.96;42.83;100866.94;7918309;28;20037;-63
2021/04/05 17:02:52;;;;;;;1.20;0.68;;;;;;;4.04;42.83;100875.28;7924784;28;20560;-64
2021/04/05 17:06:46;;;;;;;1.63;0.75;;;;;;;4.07;42.88;100886.41;7918520;28;20045;-63
2021/04/05 17:10:47;;;;;;;1.75;0.77;;;;;;;4.04;42.71;100899.53;7905221;28;20097;-64
2021/04/05 17:14:41;;;;;;;2.90;1.02;;;;;;;3.97;42.51;100905.03;7905456;28;20065;-65
2021/04/05 17:18:35;;;;;;;2.85;0.85;;;;;;;3.90;42.80;100921.78;7909963;28;20042;-64
2021/04/05 17:22:26;;;;;;;3.55;1.00;;;;;;;3.87;42.82;100916.66;7906787;28;20064;-66
2021/04/05 17:26:24;;;;;;;4.10;0.85;;;;;;;3.83;42.84;100915.94;7903017;28;20108;-66
2021/04/05 17:30:31;;;;;;;1.15;0.63;;;;;;;3.82;42.69;100929.00;7907381;28;20038;-64
2021/04/05 17:34:25;;;;;;;1.55;0.80;;;;;;;3.75;42.71;100931.81;7922802;28;20038;-65
2021/04/05 17:38:30;;;;;;;4.25;0.77;;;;;;;3.73;42.92;100928.44;7910669;28;20042;-63
2021/04/05 17:42:31;;;;;;;2.95;1.17;;;;;;;3.68;43.07;100925.16;7908518;28;20552;-65
2021/04/05 17:46:40;;;;;;;1.50;1.10;;;;;;;3.66;43.25;100926.94;7908003;28;20456;-65
2021/04/05 17:50:40;;;;;;;;;;;;;;;3.60;43.17;100918.56;7913666;28;20129;-65
2021/04/05 17:54:57;;;;;;;2.00;0.82;;;;;;;3.56;43.40;100928.22;7904289;28;19921;-65
2021/04/05 17:59:08;;;;;;;4.22;0.93;;;;;;;3.50;43.36;100927.56;7910073;28;20038;-65
2021/04/05 18:03:23;;;;;;;2.60;0.80;;;;;;;3.39;43.24;100935.75;7910568;28;20124;-65
2021/04/05 18:07:16;;;;;;;3.42;1.27;;;;;;;3.33;43.38;100938.53;7912167;28;20053;-65
2021/04/05 18:11:17;;;;;;;2.15;1.10;;;;;;;3.28;43.10;100932.66;7908798;28;20048;-66
2021/04/05 18:15:25;;;;;;;2.22;0.88;;;;;;;3.20;43.32;100939.88;7910500;28;20050;-65
2021/04/05 18:19:29;;;;;;;6.65;0.73;;;;;;;3.11;43.50;100945.38;7919644;28;20034;-65
2021/04/05 18:23:55;;;;;;;0.95;0.55;;;;;;;3.03;43.48;100935.25;7908674;28;20529;-65
2021/04/05 18:27:59;;;;;;;1.95;1.08;;;;;;;2.96;43.39;100943.25;7907122;28;20042;-66
2021/04/05 18:31:57;;;;;;;1.40;0.77;;;;;;;2.88;42.93;100949.56;7910960;28;20057;-68
2021/04/05 18:35:58;;;;;;;0.70;0.70;;;;;;;2.82;43.19;100951.53;7903929;28;20058;-68
2021/04/05 18:39:54;;;;;;;1.85;0.98;;;;;;;2.74;43.04;100961.31;7912981;28;20160;-67
2021/04/05 18:43:46;;;;;;;1.48;0.70;;;;;;;2.62;43.42;100959.94;7914595;28;20045;-69